CDT,Max TemperatureF,Mean TemperatureF,Min TemperatureF,Max Dew PointF,MeanDew PointF,Min DewpointF,Max Humidity, Mean Humidity, Min Humidity, Max Sea Level PressureIn, Mean Sea Level PressureIn, Min Sea Level PressureIn, Max VisibilityMiles, Mean VisibilityMiles, Min VisibilityMiles, Max Wind SpeedMPH, Mean Wind SpeedMPH, Max Gust SpeedMPH,PrecipitationIn, CloudCover, Events, WindDirDegrees
2012-10-1,84,70,57,54,50,46,83,58,28,29.89,29.84,29.78,10,10,10,15,3,21,0.00,0,,5
2012-10-2,79,62,44,48,42,36,85,52,22,29.98,29.92,29.87,10,10,10,7,3,16,0.00,0,,10
2012-10-3,82,60,37,50,44,38,100,63,26,30.00,29.95,29.89,10,10,6,13,2,21,0.00,0,,187
2012-10-4,77,63,50,56,51,47,97,71,47,30.20,30.11,29.98,10,10,8,18,5,17,0.03,5,Rain,18
2012-10-5,55,46,36,48,41,34,93,76,47,30.31,30.22,30.17,10,10,10,23,11,29,0.04,5,,21
2012-10-6,50,44,39,39,35,28,89,69,43,30.36,30.32,30.29,10,10,10,12,3,18,0.00,6,,22
2012-10-7,55,42,28,34,29,25,96,62,31,30.36,30.30,30.22,10,10,10,8,2,,0.00,0,,194
2012-10-8,66,45,26,36,33,26,100,64,31,30.24,30.14,30.03,10,10,10,15,4,21,0.00,0,,192
2012-10-9,68,50,33,54,46,32,96,74,52,30.12,29.96,29.89,10,10,10,14,4,24,0.00,4,,175
2012-10-10,68,52,37,43,35,29,93,55,24,30.30,30.21,30.14,10,10,10,13,3,,0.00,1,,66
2012-10-11,80,67,54,66,56,40,81,65,58,30.13,30.08,29.99,10,10,10,20,5,28,0.00,7,,184
2012-10-12,73,68,62,66,65,63,100,92,73,30.20,30.13,30.05,10,7,1,13,5,25,1.85,6,Rain,110
2012-10-13,73,68,64,72,67,63,100,94,83,30.02,29.83,29.67,10,6,0,14,7,21,1.48,6,Fog-Rain,177
2012-10-14,79,62,48,65,51,44,100,69,31,30.06,29.91,29.65,10,10,10,14,7,22,0.00,0,,257
2012-10-15,88,68,48,51,46,43,100,48,22,30.05,29.95,29.84,10,10,10,12,6,17,0.00,0,,231
2012-10-16,84,70,57,54,50,45,72,51,27,29.84,29.70,29.55,10,10,10,21,8,26,0.00,0,,187
2012-10-17,78,65,53,64,53,35,94,70,28,29.78,29.55,29.42,10,10,9,12,6,21,0.00,3,,173
2012-10-18,69,60,50,33,24,20,50,28,16,29.89,29.83,29.79,10,8,4,17,6,32,0.00,3,,285
2012-10-19,69,54,37,37,30,24,89,42,27,29.91,29.85,29.82,10,10,7,10,7,22,0.00,2,,282
2012-10-20,82,58,34,55,44,34,100,69,32,29.87,29.79,29.69,10,10,10,12,2,,0.00,0,,162
2012-10-21,86,68,53,69,63,52,100,77,55,29.79,29.74,29.69,10,10,5,17,7,26,0.00,3,,171
2012-10-22,82,76,69,68,66,62,87,73,58,29.87,29.82,29.76,10,10,10,20,10,31,0.00,2,,186
2012-10-23,84,75,68,68,67,66,96,79,56,29.84,29.81,29.74,10,10,10,17,9,31,0.00,4,,178
2012-10-24,87,75,66,67,64,61,96,73,54,29.86,29.79,29.72,10,10,10,20,10,29,0.00,0,,179
2012-10-25,72,58,43,64,49,36,93,73,58,30.25,29.94,29.68,10,10,6,18,9,26,0.00,5,,277
2012-10-26,50,42,34,33,29,27,81,65,43,30.47,30.39,30.30,10,10,10,20,14,29,0.00,2,,11
2012-10-27,52,40,28,30,27,25,92,70,38,30.43,30.35,30.25,10,10,10,9,2,,0.00,0,,40
2012-10-28,57,40,24,33,27,23,100,73,27,30.37,30.31,30.25,10,10,8,7,1,,0.00,0,,80
2012-10-29,64,46,28,35,31,27,96,71,27,30.34,30.23,30.10,10,10,6,10,2,,0.00,2,,151
2012-10-30,77,54,32,41,36,31,96,61,24,30.09,29.98,29.87,10,10,10,10,3,,0.00,1,,141
2012-10-31,68,52,37,38,34,29,89,58,28,30.10,30.03,29.96,10,10,10,7,1,,0.00,0,,19